sensor_id;sensor_type;location;lat;lon;timestamp;P1;durP1;ratioP1;P2;durP2;ratioP2
48635;SDS011;34429;52.332;5.614;2022-10-16T00:01:28;4.40;;;2.07;;
48635;SDS011;34429;52.332;5.614;2022-10-16T00:03:57;5.07;;;1.70;;
48635;SDS011;34429;52.332;5.614;2022-10-16T00:06:27;4.05;;;1.80;;
48635;SDS011;34429;52.332;5.614;2022-10-16T00:08:56;3.70;;;1.98;;
48635;SDS011;34429;52.332;5.614;2022-10-16T00:11:28;3.85;;;2.03;;
48635;SDS011;34429;52.332;5.614;2022-10-16T00:13:59;8.55;;;2.10;;
48635;SDS011;34429;52.332;5.614;2022-10-16T00:16:29;3.03;;;1.73;;
48635;SDS011;34429;52.332;5.614;2022-10-16T00:18:57;3.97;;;1.80;;
48635;SDS011;34429;52.332;5.614;2022-10-16T00:21:27;5.28;;;2.00;;
48635;SDS011;34429;52.332;5.614;2022-10-16T00:23:58;3.47;;;1.85;;
48635;SDS011;34429;52.332;5.614;2022-10-16T00:26:30;5.15;;;1.73;;
48635;SDS011;34429;52.332;5.614;2022-10-16T00:29:00;5.97;;;2.13;;
48635;SDS011;34429;52.332;5.614;2022-10-16T00:31:29;6.97;;;1.73;;
48635;SDS011;34429;52.332;5.614;2022-10-16T00:33:58;3.13;;;2.42;;
48635;SDS011;34429;52.332;5.614;2022-10-16T00:36:26;3.10;;;2.00;;
48635;SDS011;34429;52.332;5.614;2022-10-16T00:38:56;2.33;;;1.67;;
48635;SDS011;34429;52.332;5.614;2022-10-16T00:41:25;3.80;;;2.13;;
48635;SDS011;34429;52.332;5.614;2022-10-16T00:43:58;6.03;;;2.03;;
48635;SDS011;34429;52.332;5.614;2022-10-16T00:46:37;5.93;;;2.08;;
48635;SDS011;34429;52.332;5.614;2022-10-16T00:49:07;3.47;;;1.70;;
48635;SDS011;34429;52.332;5.614;2022-10-16T00:51:38;5.95;;;2.10;;
48635;SDS011;34429;52.332;5.614;2022-10-16T00:54:09;4.53;;;2.10;;
48635;SDS011;34429;52.332;5.614;2022-10-16T00:56:39;5.13;;;2.45;;
48635;SDS011;34429;52.332;5.614;2022-10-16T00:59:11;3.33;;;2.20;;
48635;SDS011;34429;52.332;5.614;2022-10-16T01:01:44;5.93;;;1.90;;
48635;SDS011;34429;52.332;5.614;2022-10-16T01:04:13;4.68;;;1.98;;
48635;SDS011;34429;52.332;5.614;2022-10-16T01:06:42;5.38;;;1.95;;
48635;SDS011;34429;52.332;5.614;2022-10-16T01:09:20;5.47;;;1.92;;
48635;SDS011;34429;52.332;5.614;2022-10-16T01:11:56;7.25;;;2.50;;
48635;SDS011;34429;52.332;5.614;2022-10-16T01:14:35;4.82;;;2.13;;
48635;SDS011;34429;52.332;5.614;2022-10-16T01:17:11;5.93;;;2.22;;
48635;SDS011;34429;52.332;5.614;2022-10-16T01:22:33;5.80;;;2.17;;
48635;SDS011;34429;52.332;5.614;2022-10-16T01:25:09;5.80;;;2.33;;
48635;SDS011;34429;52.332;5.614;2022-10-16T01:27:46;4.60;;;2.03;;
48635;SDS011;34429;52.332;5.614;2022-10-16T01:30:17;5.40;;;2.78;;
48635;SDS011;34429;52.332;5.614;2022-10-16T01:32:49;4.95;;;2.47;;
48635;SDS011;34429;52.332;5.614;2022-10-16T01:35:21;8.10;;;2.80;;
48635;SDS011;34429;52.332;5.614;2022-10-16T01:37:55;3.15;;;2.17;;
48635;SDS011;34429;52.332;5.614;2022-10-16T01:40:28;4.07;;;2.17;;
48635;SDS011;34429;52.332;5.614;2022-10-16T01:43:05;3.88;;;2.10;;
48635;SDS011;34429;52.332;5.614;2022-10-16T01:45:38;4.30;;;1.95;;
48635;SDS011;34429;52.332;5.614;2022-10-16T01:48:09;4.75;;;2.15;;
48635;SDS011;34429;52.332;5.614;2022-10-16T01:50:41;3.47;;;2.05;;
48635;SDS011;34429;52.332;5.614;2022-10-16T01:53:12;4.47;;;2.30;;
48635;SDS011;34429;52.332;5.614;2022-10-16T01:55:44;3.70;;;2.33;;
48635;SDS011;34429;52.332;5.614;2022-10-16T01:58:18;5.15;;;2.08;;
48635;SDS011;34429;52.332;5.614;2022-10-16T02:00:46;5.95;;;2.63;;
48635;SDS011;34429;52.332;5.614;2022-10-16T02:03:16;6.40;;;2.20;;
48635;SDS011;34429;52.332;5.614;2022-10-16T02:05:46;4.18;;;2.10;;
48635;SDS011;34429;52.332;5.614;2022-10-16T02:08:16;5.28;;;2.10;;
48635;SDS011;34429;52.332;5.614;2022-10-16T02:10:45;5.38;;;2.60;;
48635;SDS011;34429;52.332;5.614;2022-10-16T02:13:15;5.20;;;2.33;;
48635;SDS011;34429;52.332;5.614;2022-10-16T02:15:50;6.50;;;2.63;;
48635;SDS011;34429;52.332;5.614;2022-10-16T02:18:19;2.72;;;1.75;;
48635;SDS011;34429;52.332;5.614;2022-10-16T02:20:48;4.78;;;2.88;;
48635;SDS011;34429;52.332;5.614;2022-10-16T02:23:22;3.97;;;2.45;;
48635;SDS011;34429;52.332;5.614;2022-10-16T02:25:56;3.60;;;2.30;;
48635;SDS011;34429;52.332;5.614;2022-10-16T02:28:31;3.50;;;2.03;;
48635;SDS011;34429;52.332;5.614;2022-10-16T02:31:08;6.30;;;2.58;;
48635;SDS011;34429;52.332;5.614;2022-10-16T02:33:39;3.28;;;2.30;;
48635;SDS011;34429;52.332;5.614;2022-10-16T02:36:09;3.78;;;2.33;;
48635;SDS011;34429;52.332;5.614;2022-10-16T02:38:38;5.22;;;2.58;;
48635;SDS011;34429;52.332;5.614;2022-10-16T02:41:08;3.22;;;2.25;;
48635;SDS011;34429;52.332;5.614;2022-10-16T02:43:39;5.82;;;2.70;;
48635;SDS011;34429;52.332;5.614;2022-10-16T02:46:07;3.65;;;2.53;;
48635;SDS011;34429;52.332;5.614;2022-10-16T02:48:36;4.85;;;2.63;;
48635;SDS011;34429;52.332;5.614;2022-10-16T02:51:04;3.95;;;2.47;;
48635;SDS011;34429;52.332;5.614;2022-10-16T02:53:33;6.53;;;3.10;;
48635;SDS011;34429;52.332;5.614;2022-10-16T02:56:01;6.05;;;2.72;;
48635;SDS011;34429;52.332;5.614;2022-10-16T02:58:29;3.90;;;2.50;;
48635;SDS011;34429;52.332;5.614;2022-10-16T03:01:00;4.83;;;2.50;;
48635;SDS011;34429;52.332;5.614;2022-10-16T03:03:28;4.63;;;2.75;;
48635;SDS011;34429;52.332;5.614;2022-10-16T03:05:57;6.32;;;2.90;;
48635;SDS011;34429;52.332;5.614;2022-10-16T03:08:25;4.10;;;2.70;;
48635;SDS011;34429;52.332;5.614;2022-10-16T03:10:54;4.20;;;2.53;;
48635;SDS011;34429;52.332;5.614;2022-10-16T03:13:22;7.07;;;3.10;;
48635;SDS011;34429;52.332;5.614;2022-10-16T03:15:51;5.13;;;2.75;;
48635;SDS011;34429;52.332;5.614;2022-10-16T03:18:22;4.57;;;2.90;;
48635;SDS011;34429;52.332;5.614;2022-10-16T03:20:50;6.72;;;3.03;;
48635;SDS011;34429;52.332;5.614;2022-10-16T03:23:18;6.03;;;2.72;;
48635;SDS011;34429;52.332;5.614;2022-10-16T03:25:47;5.80;;;2.67;;
48635;SDS011;34429;52.332;5.614;2022-10-16T03:28:15;3.90;;;3.05;;
48635;SDS011;34429;52.332;5.614;2022-10-16T03:30:43;4.10;;;2.47;;
48635;SDS011;34429;52.332;5.614;2022-10-16T03:33:12;4.93;;;2.83;;
48635;SDS011;34429;52.332;5.614;2022-10-16T03:35:42;7.35;;;3.50;;
48635;SDS011;34429;52.332;5.614;2022-10-16T03:38:18;5.47;;;2.92;;
48635;SDS011;34429;52.332;5.614;2022-10-16T03:40:46;6.13;;;3.10;;
48635;SDS011;34429;52.332;5.614;2022-10-16T03:43:15;5.28;;;2.75;;
48635;SDS011;34429;52.332;5.614;2022-10-16T03:45:43;5.60;;;3.20;;
48635;SDS011;34429;52.332;5.614;2022-10-16T03:48:11;4.13;;;2.73;;
48635;SDS011;34429;52.332;5.614;2022-10-16T03:50:42;4.25;;;2.80;;
48635;SDS011;34429;52.332;5.614;2022-10-16T03:53:11;3.60;;;2.55;;
48635;SDS011;34429;52.332;5.614;2022-10-16T03:55:40;6.20;;;2.85;;
48635;SDS011;34429;52.332;5.614;2022-10-16T03:58:09;6.47;;;3.03;;
48635;SDS011;34429;52.332;5.614;2022-10-16T04:00:39;4.68;;;3.13;;
48635;SDS011;34429;52.332;5.614;2022-10-16T04:03:08;6.85;;;3.22;;
48635;SDS011;34429;52.332;5.614;2022-10-16T04:05:37;4.75;;;3.53;;
48635;SDS011;34429;52.332;5.614;2022-10-16T04:08:08;5.93;;;2.70;;
48635;SDS011;34429;52.332;5.614;2022-10-16T04:10:36;3.88;;;2.70;;
48635;SDS011;34429;52.332;5.614;2022-10-16T04:13:05;4.13;;;2.90;;
48635;SDS011;34429;52.332;5.614;2022-10-16T04:15:33;5.65;;;2.67;;
48635;SDS011;34429;52.332;5.614;2022-10-16T04:18:01;5.38;;;3.08;;
48635;SDS011;34429;52.332;5.614;2022-10-16T04:20:30;5.40;;;2.85;;
48635;SDS011;34429;52.332;5.614;2022-10-16T04:22:58;3.78;;;2.65;;
48635;SDS011;34429;52.332;5.614;2022-10-16T04:25:29;3.50;;;2.50;;
48635;SDS011;34429;52.332;5.614;2022-10-16T04:27:58;3.88;;;2.67;;
48635;SDS011;34429;52.332;5.614;2022-10-16T04:30:26;8.05;;;2.97;;
48635;SDS011;34429;52.332;5.614;2022-10-16T04:32:55;4.18;;;2.92;;
48635;SDS011;34429;52.332;5.614;2022-10-16T04:35:23;4.45;;;2.83;;
48635;SDS011;34429;52.332;5.614;2022-10-16T04:37:51;4.43;;;2.53;;
48635;SDS011;34429;52.332;5.614;2022-10-16T04:40:20;5.55;;;3.17;;
48635;SDS011;34429;52.332;5.614;2022-10-16T04:42:50;4.03;;;2.85;;
48635;SDS011;34429;52.332;5.614;2022-10-16T04:45:19;6.63;;;2.67;;
48635;SDS011;34429;52.332;5.614;2022-10-16T04:47:47;3.15;;;2.15;;
48635;SDS011;34429;52.332;5.614;2022-10-16T04:50:15;7.38;;;2.60;;
48635;SDS011;34429;52.332;5.614;2022-10-16T04:52:44;3.53;;;2.50;;
48635;SDS011;34429;52.332;5.614;2022-10-16T04:55:12;3.80;;;2.33;;
48635;SDS011;34429;52.332;5.614;2022-10-16T04:57:41;3.55;;;2.10;;
48635;SDS011;34429;52.332;5.614;2022-10-16T05:00:12;3.00;;;2.13;;
48635;SDS011;34429;52.332;5.614;2022-10-16T05:02:41;4.00;;;2.65;;
48635;SDS011;34429;52.332;5.614;2022-10-16T05:05:09;4.50;;;2.60;;
48635;SDS011;34429;52.332;5.614;2022-10-16T05:07:39;2.72;;;1.95;;
48635;SDS011;34429;52.332;5.614;2022-10-16T05:10:10;2.83;;;2.00;;
48635;SDS011;34429;52.332;5.614;2022-10-16T05:12:39;4.03;;;2.33;;
48635;SDS011;34429;52.332;5.614;2022-10-16T05:15:08;3.28;;;1.77;;
48635;SDS011;34429;52.332;5.614;2022-10-16T05:17:39;4.65;;;2.50;;
48635;SDS011;34429;52.332;5.614;2022-10-16T05:20:08;3.17;;;2.70;;
48635;SDS011;34429;52.332;5.614;2022-10-16T05:22:36;4.65;;;2.53;;
48635;SDS011;34429;52.332;5.614;2022-10-16T05:25:05;3.33;;;2.00;;
48635;SDS011;34429;52.332;5.614;2022-10-16T05:27:33;4.68;;;2.33;;
48635;SDS011;34429;52.332;5.614;2022-10-16T05:30:02;5.07;;;2.40;;
48635;SDS011;34429;52.332;5.614;2022-10-16T05:35:02;2.85;;;2.15;;
48635;SDS011;34429;52.332;5.614;2022-10-16T05:37:30;3.92;;;2.13;;
48635;SDS011;34429;52.332;5.614;2022-10-16T05:39:59;3.83;;;2.28;;
48635;SDS011;34429;52.332;5.614;2022-10-16T05:42:29;4.95;;;2.38;;
48635;SDS011;34429;52.332;5.614;2022-10-16T05:44:58;2.50;;;2.10;;
48635;SDS011;34429;52.332;5.614;2022-10-16T05:47:26;3.03;;;1.90;;
48635;SDS011;34429;52.332;5.614;2022-10-16T05:49:55;4.68;;;2.03;;
48635;SDS011;34429;52.332;5.614;2022-10-16T05:52:26;4.93;;;2.25;;
48635;SDS011;34429;52.332;5.614;2022-10-16T05:54:54;5.63;;;2.50;;
48635;SDS011;34429;52.332;5.614;2022-10-16T05:57:22;5.75;;;2.33;;
48635;SDS011;34429;52.332;5.614;2022-10-16T05:59:51;5.10;;;2.45;;
48635;SDS011;34429;52.332;5.614;2022-10-16T06:02:19;4.25;;;2.13;;
48635;SDS011;34429;52.332;5.614;2022-10-16T06:04:47;3.20;;;1.88;;
48635;SDS011;34429;52.332;5.614;2022-10-16T06:07:15;2.60;;;1.80;;
48635;SDS011;34429;52.332;5.614;2022-10-16T06:09:47;5.13;;;2.13;;
48635;SDS011;34429;52.332;5.614;2022-10-16T06:12:16;3.78;;;1.90;;
48635;SDS011;34429;52.332;5.614;2022-10-16T06:14:44;4.97;;;2.15;;
48635;SDS011;34429;52.332;5.614;2022-10-16T06:19:48;4.43;;;2.17;;
48635;SDS011;34429;52.332;5.614;2022-10-16T06:22:16;4.75;;;1.90;;
48635;SDS011;34429;52.332;5.614;2022-10-16T06:24:48;7.97;;;2.63;;
48635;SDS011;34429;52.332;5.614;2022-10-16T06:27:16;3.60;;;1.73;;
48635;SDS011;34429;52.332;5.614;2022-10-16T06:29:44;5.68;;;2.55;;
48635;SDS011;34429;52.332;5.614;2022-10-16T06:32:13;5.10;;;2.30;;
48635;SDS011;34429;52.332;5.614;2022-10-16T06:34:41;3.47;;;2.25;;
48635;SDS011;34429;52.332;5.614;2022-10-16T06:37:09;3.47;;;2.30;;
48635;SDS011;34429;52.332;5.614;2022-10-16T06:39:37;9.52;;;2.78;;
48635;SDS011;34429;52.332;5.614;2022-10-16T06:42:08;3.72;;;2.58;;
48635;SDS011;34429;52.332;5.614;2022-10-16T06:44:36;5.72;;;2.78;;
48635;SDS011;34429;52.332;5.614;2022-10-16T06:47:05;4.32;;;2.38;;
48635;SDS011;34429;52.332;5.614;2022-10-16T06:49:33;5.87;;;3.50;;
48635;SDS011;34429;52.332;5.614;2022-10-16T06:52:01;6.93;;;3.35;;
48635;SDS011;34429;52.332;5.614;2022-10-16T06:54:30;4.95;;;2.83;;
48635;SDS011;34429;52.332;5.614;2022-10-16T06:56:58;6.00;;;4.37;;
48635;SDS011;34429;52.332;5.614;2022-10-16T06:59:30;3.72;;;2.85;;
48635;SDS011;34429;52.332;5.614;2022-10-16T07:01:58;6.50;;;3.30;;
48635;SDS011;34429;52.332;5.614;2022-10-16T07:04:26;5.57;;;2.93;;
48635;SDS011;34429;52.332;5.614;2022-10-16T07:06:54;5.88;;;3.28;;
48635;SDS011;34429;52.332;5.614;2022-10-16T07:09:23;4.82;;;3.15;;
48635;SDS011;34429;52.332;5.614;2022-10-16T07:11:51;6.57;;;3.63;;
48635;SDS011;34429;52.332;5.614;2022-10-16T07:14:20;8.35;;;3.78;;
48635;SDS011;34429;52.332;5.614;2022-10-16T07:16:52;4.93;;;3.10;;
48635;SDS011;34429;52.332;5.614;2022-10-16T07:19:20;6.28;;;3.33;;
48635;SDS011;34429;52.332;5.614;2022-10-16T07:21:50;8.77;;;3.47;;
48635;SDS011;34429;52.332;5.614;2022-10-16T07:24:18;5.85;;;3.00;;
48635;SDS011;34429;52.332;5.614;2022-10-16T07:26:46;4.65;;;3.30;;
48635;SDS011;34429;52.332;5.614;2022-10-16T07:29:16;8.55;;;3.00;;
48635;SDS011;34429;52.332;5.614;2022-10-16T07:31:47;5.57;;;2.78;;
48635;SDS011;34429;52.332;5.614;2022-10-16T07:34:19;5.20;;;3.30;;
48635;SDS011;34429;52.332;5.614;2022-10-16T07:36:48;4.63;;;2.65;;
48635;SDS011;34429;52.332;5.614;2022-10-16T07:39:23;5.55;;;2.90;;
48635;SDS011;34429;52.332;5.614;2022-10-16T07:41:51;5.72;;;2.78;;
48635;SDS011;34429;52.332;5.614;2022-10-16T07:44:19;6.75;;;2.53;;
48635;SDS011;34429;52.332;5.614;2022-10-16T07:46:48;7.07;;;2.15;;
48635;SDS011;34429;52.332;5.614;2022-10-16T07:49:19;4.70;;;2.95;;
48635;SDS011;34429;52.332;5.614;2022-10-16T07:51:47;4.30;;;2.20;;
48635;SDS011;34429;52.332;5.614;2022-10-16T07:54:15;7.03;;;2.20;;
48635;SDS011;34429;52.332;5.614;2022-10-16T07:56:43;3.17;;;2.10;;
48635;SDS011;34429;52.332;5.614;2022-10-16T07:59:12;6.20;;;2.10;;
48635;SDS011;34429;52.332;5.614;2022-10-16T08:01:40;4.33;;;2.53;;
48635;SDS011;34429;52.332;5.614;2022-10-16T08:04:09;4.95;;;2.08;;
48635;SDS011;34429;52.332;5.614;2022-10-16T08:06:40;4.07;;;2.30;;
48635;SDS011;34429;52.332;5.614;2022-10-16T08:09:09;3.97;;;1.90;;
48635;SDS011;34429;52.332;5.614;2022-10-16T08:11:37;5.88;;;2.05;;
48635;SDS011;34429;52.332;5.614;2022-10-16T08:14:05;7.63;;;2.00;;
48635;SDS011;34429;52.332;5.614;2022-10-16T08:16:34;4.10;;;1.83;;
48635;SDS011;34429;52.332;5.614;2022-10-16T08:19:02;4.82;;;1.80;;
48635;SDS011;34429;52.332;5.614;2022-10-16T08:21:30;2.70;;;1.50;;
48635;SDS011;34429;52.332;5.614;2022-10-16T08:24:01;6.15;;;1.75;;
48635;SDS011;34429;52.332;5.614;2022-10-16T08:26:30;5.25;;;2.13;;
48635;SDS011;34429;52.332;5.614;2022-10-16T08:28:58;8.65;;;1.85;;
48635;SDS011;34429;52.332;5.614;2022-10-16T08:31:26;3.17;;;1.58;;
48635;SDS011;34429;52.332;5.614;2022-10-16T08:33:55;2.67;;;1.60;;
48635;SDS011;34429;52.332;5.614;2022-10-16T08:36:23;3.15;;;1.55;;
48635;SDS011;34429;52.332;5.614;2022-10-16T08:38:51;7.43;;;2.10;;
48635;SDS011;34429;52.332;5.614;2022-10-16T08:44:40;4.47;;;2.25;;
48635;SDS011;34429;52.332;5.614;2022-10-16T08:47:34;5.60;;;2.40;;
48635;SDS011;34429;52.332;5.614;2022-10-16T08:50:11;4.95;;;2.38;;
48635;SDS011;34429;52.332;5.614;2022-10-16T08:52:42;6.18;;;2.50;;
48635;SDS011;34429;52.332;5.614;2022-10-16T08:55:17;6.57;;;2.50;;
48635;SDS011;34429;52.332;5.614;2022-10-16T08:58:05;3.65;;;2.22;;
48635;SDS011;34429;52.332;5.614;2022-10-16T09:00:39;7.70;;;2.90;;
48635;SDS011;34429;52.332;5.614;2022-10-16T09:03:13;4.95;;;2.30;;
48635;SDS011;34429;52.332;5.614;2022-10-16T09:08:25;4.30;;;2.45;;
48635;SDS011;34429;52.332;5.614;2022-10-16T09:10:59;6.80;;;2.80;;
48635;SDS011;34429;52.332;5.614;2022-10-16T09:13:39;5.78;;;2.38;;
48635;SDS011;34429;52.332;5.614;2022-10-16T09:16:17;7.10;;;2.88;;
48635;SDS011;34429;52.332;5.614;2022-10-16T09:18:52;3.70;;;2.08;;
48635;SDS011;34429;52.332;5.614;2022-10-16T09:21:25;6.53;;;2.20;;
48635;SDS011;34429;52.332;5.614;2022-10-16T09:23:57;6.40;;;2.10;;
48635;SDS011;34429;52.332;5.614;2022-10-16T09:26:27;3.83;;;1.88;;
48635;SDS011;34429;52.332;5.614;2022-10-16T09:28:58;6.03;;;2.17;;
48635;SDS011;34429;52.332;5.614;2022-10-16T09:31:26;4.03;;;2.30;;
48635;SDS011;34429;52.332;5.614;2022-10-16T09:33:55;8.38;;;1.90;;
48635;SDS011;34429;52.332;5.614;2022-10-16T09:36:29;6.05;;;1.70;;
48635;SDS011;34429;52.332;5.614;2022-10-16T09:39:08;6.60;;;2.72;;
48635;SDS011;34429;52.332;5.614;2022-10-16T09:41:38;4.30;;;1.77;;
48635;SDS011;34429;52.332;5.614;2022-10-16T09:44:18;4.55;;;1.80;;
48635;SDS011;34429;52.332;5.614;2022-10-16T09:46:49;8.02;;;2.05;;
48635;SDS011;34429;52.332;5.614;2022-10-16T09:49:28;7.82;;;1.58;;
48635;SDS011;34429;52.332;5.614;2022-10-16T09:52:02;7.80;;;2.03;;
48635;SDS011;34429;52.332;5.614;2022-10-16T09:54:31;7.22;;;1.92;;
48635;SDS011;34429;52.332;5.614;2022-10-16T09:57:06;8.73;;;1.40;;
48635;SDS011;34429;52.332;5.614;2022-10-16T09:59:45;8.27;;;1.52;;
48635;SDS011;34429;52.332;5.614;2022-10-16T10:02:15;7.93;;;1.70;;
48635;SDS011;34429;52.332;5.614;2022-10-16T10:04:48;7.13;;;1.67;;
48635;SDS011;34429;52.332;5.614;2022-10-16T10:07:20;6.50;;;1.55;;
48635;SDS011;34429;52.332;5.614;2022-10-16T10:09:56;4.53;;;1.38;;
48635;SDS011;34429;52.332;5.614;2022-10-16T10:12:25;6.57;;;1.95;;
48635;SDS011;34429;52.332;5.614;2022-10-16T10:15:04;5.47;;;1.55;;
48635;SDS011;34429;52.332;5.614;2022-10-16T10:17:44;4.72;;;1.60;;
48635;SDS011;34429;52.332;5.614;2022-10-16T10:20:18;4.80;;;1.80;;
48635;SDS011;34429;52.332;5.614;2022-10-16T10:22:51;8.98;;;1.90;;
48635;SDS011;34429;52.332;5.614;2022-10-16T10:25:31;5.38;;;1.52;;
48635;SDS011;34429;52.332;5.614;2022-10-16T10:28:15;5.15;;;1.70;;
48635;SDS011;34429;52.332;5.614;2022-10-16T10:30:58;8.32;;;1.98;;
48635;SDS011;34429;52.332;5.614;2022-10-16T10:33:34;6.95;;;1.45;;
48635;SDS011;34429;52.332;5.614;2022-10-16T10:36:19;6.30;;;1.80;;
48635;SDS011;34429;52.332;5.614;2022-10-16T10:38:56;5.95;;;1.80;;
48635;SDS011;34429;52.332;5.614;2022-10-16T10:41:38;9.48;;;1.55;;
48635;SDS011;34429;52.332;5.614;2022-10-16T10:44:24;8.63;;;1.65;;
48635;SDS011;34429;52.332;5.614;2022-10-16T10:47:12;11.07;;;2.20;;
48635;SDS011;34429;52.332;5.614;2022-10-16T10:49:50;9.32;;;1.90;;
48635;SDS011;34429;52.332;5.614;2022-10-16T10:52:33;8.18;;;1.70;;
48635;SDS011;34429;52.332;5.614;2022-10-16T10:55:15;6.47;;;1.70;;
48635;SDS011;34429;52.332;5.614;2022-10-16T11:00:49;9.38;;;2.03;;
48635;SDS011;34429;52.332;5.614;2022-10-16T11:03:35;5.22;;;1.38;;
48635;SDS011;34429;52.332;5.614;2022-10-16T11:08:43;7.70;;;1.83;;
48635;SDS011;34429;52.332;5.614;2022-10-16T11:11:18;5.88;;;1.80;;
48635;SDS011;34429;52.332;5.614;2022-10-16T11:13:53;8.98;;;2.00;;
48635;SDS011;34429;52.332;5.614;2022-10-16T11:16:26;10.07;;;2.25;;
48635;SDS011;34429;52.332;5.614;2022-10-16T11:19:03;7.70;;;1.95;;
48635;SDS011;34429;52.332;5.614;2022-10-16T11:21:42;6.93;;;1.30;;
48635;SDS011;34429;52.332;5.614;2022-10-16T11:24:16;4.75;;;1.70;;
48635;SDS011;34429;52.332;5.614;2022-10-16T11:26:50;9.38;;;2.95;;
48635;SDS011;34429;52.332;5.614;2022-10-16T11:29:24;7.75;;;1.90;;
48635;SDS011;34429;52.332;5.614;2022-10-16T11:31:57;7.18;;;1.58;;
48635;SDS011;34429;52.332;5.614;2022-10-16T11:34:34;8.07;;;2.03;;
48635;SDS011;34429;52.332;5.614;2022-10-16T11:37:10;4.65;;;1.50;;
48635;SDS011;34429;52.332;5.614;2022-10-16T11:39:42;7.78;;;1.80;;
48635;SDS011;34429;52.332;5.614;2022-10-16T11:42:13;8.00;;;2.03;;
48635;SDS011;34429;52.332;5.614;2022-10-16T11:44:50;7.00;;;1.67;;
48635;SDS011;34429;52.332;5.614;2022-10-16T11:47:30;5.00;;;1.60;;
48635;SDS011;34429;52.332;5.614;2022-10-16T11:50:09;7.97;;;1.92;;
48635;SDS011;34429;52.332;5.614;2022-10-16T11:52:49;4.20;;;1.50;;
48635;SDS011;34429;52.332;5.614;2022-10-16T11:55:23;7.38;;;1.85;;
48635;SDS011;34429;52.332;5.614;2022-10-16T11:57:57;4.93;;;1.55;;
48635;SDS011;34429;52.332;5.614;2022-10-16T12:00:33;8.35;;;2.05;;
48635;SDS011;34429;52.332;5.614;2022-10-16T12:03:11;11.35;;;2.15;;
48635;SDS011;34429;52.332;5.614;2022-10-16T12:08:46;5.75;;;1.45;;
48635;SDS011;34429;52.332;5.614;2022-10-16T12:11:31;7.75;;;1.90;;
48635;SDS011;34429;52.332;5.614;2022-10-16T12:14:05;14.85;;;2.15;;
48635;SDS011;34429;52.332;5.614;2022-10-16T12:16:52;5.75;;;1.75;;
48635;SDS011;34429;52.332;5.614;2022-10-16T12:19:23;5.45;;;1.85;;
48635;SDS011;34429;52.332;5.614;2022-10-16T12:21:55;6.22;;;1.42;;
48635;SDS011;34429;52.332;5.614;2022-10-16T12:24:31;7.90;;;1.60;;
48635;SDS011;34429;52.332;5.614;2022-10-16T12:27:02;9.27;;;1.95;;
48635;SDS011;34429;52.332;5.614;2022-10-16T12:29:34;7.70;;;1.75;;
48635;SDS011;34429;52.332;5.614;2022-10-16T12:32:05;7.68;;;1.50;;
48635;SDS011;34429;52.332;5.614;2022-10-16T12:34:51;4.88;;;1.42;;
48635;SDS011;34429;52.332;5.614;2022-10-16T12:37:23;3.85;;;1.40;;
48635;SDS011;34429;52.332;5.614;2022-10-16T12:39:54;6.43;;;1.80;;
48635;SDS011;34429;52.332;5.614;2022-10-16T12:42:31;5.45;;;1.45;;
48635;SDS011;34429;52.332;5.614;2022-10-16T12:45:01;7.93;;;1.83;;
48635;SDS011;34429;52.332;5.614;2022-10-16T12:47:52;9.02;;;1.90;;
48635;SDS011;34429;52.332;5.614;2022-10-16T12:50:29;4.53;;;1.73;;
48635;SDS011;34429;52.332;5.614;2022-10-16T12:53:03;5.13;;;1.63;;
48635;SDS011;34429;52.332;5.614;2022-10-16T12:55:47;6.70;;;1.60;;
48635;SDS011;34429;52.332;5.614;2022-10-16T12:58:26;4.70;;;1.38;;
48635;SDS011;34429;52.332;5.614;2022-10-16T13:01:07;5.28;;;1.40;;
48635;SDS011;34429;52.332;5.614;2022-10-16T13:04:04;7.88;;;1.42;;
48635;SDS011;34429;52.332;5.614;2022-10-16T13:06:46;4.40;;;1.30;;
48635;SDS011;34429;52.332;5.614;2022-10-16T13:09:28;3.05;;;1.20;;
48635;SDS011;34429;52.332;5.614;2022-10-16T13:12:11;7.50;;;1.88;;
48635;SDS011;34429;52.332;5.614;2022-10-16T13:14:56;4.32;;;1.20;;
48635;SDS011;34429;52.332;5.614;2022-10-16T13:17:37;3.90;;;1.38;;
48635;SDS011;34429;52.332;5.614;2022-10-16T13:20:16;3.88;;;1.63;;
48635;SDS011;34429;52.332;5.614;2022-10-16T13:22:51;3.45;;;1.00;;
48635;SDS011;34429;52.332;5.614;2022-10-16T13:25:34;3.88;;;1.38;;
48635;SDS011;34429;52.332;5.614;2022-10-16T13:28:11;6.88;;;1.70;;
48635;SDS011;34429;52.332;5.614;2022-10-16T13:30:41;2.97;;;1.35;;
48635;SDS011;34429;52.332;5.614;2022-10-16T13:33:13;4.78;;;1.50;;
48635;SDS011;34429;52.332;5.614;2022-10-16T13:35:48;7.50;;;1.63;;
48635;SDS011;34429;52.332;5.614;2022-10-16T13:38:19;5.68;;;1.50;;
48635;SDS011;34429;52.332;5.614;2022-10-16T13:40:54;4.18;;;1.10;;
48635;SDS011;34429;52.332;5.614;2022-10-16T13:43:27;3.85;;;1.25;;
48635;SDS011;34429;52.332;5.614;2022-10-16T13:45:59;3.92;;;1.23;;
48635;SDS011;34429;52.332;5.614;2022-10-16T13:48:29;7.88;;;1.75;;
48635;SDS011;34429;52.332;5.614;2022-10-16T13:50:59;6.45;;;2.17;;
48635;SDS011;34429;52.332;5.614;2022-10-16T13:53:29;2.47;;;1.42;;
48635;SDS011;34429;52.332;5.614;2022-10-16T13:56:01;7.28;;;1.48;;
48635;SDS011;34429;52.332;5.614;2022-10-16T13:58:31;4.15;;;1.50;;
48635;SDS011;34429;52.332;5.614;2022-10-16T14:01:00;11.65;;;1.90;;
48635;SDS011;34429;52.332;5.614;2022-10-16T14:03:30;6.93;;;1.67;;
48635;SDS011;34429;52.332;5.614;2022-10-16T14:06:01;7.35;;;1.45;;
48635;SDS011;34429;52.332;5.614;2022-10-16T14:08:31;3.80;;;1.30;;
48635;SDS011;34429;52.332;5.614;2022-10-16T14:11:02;5.90;;;1.55;;
48635;SDS011;34429;52.332;5.614;2022-10-16T14:13:31;7.97;;;1.50;;
48635;SDS011;34429;52.332;5.614;2022-10-16T14:16:05;7.65;;;1.63;;
48635;SDS011;34429;52.332;5.614;2022-10-16T14:18:37;4.97;;;1.20;;
48635;SDS011;34429;52.332;5.614;2022-10-16T14:21:11;7.07;;;1.50;;
48635;SDS011;34429;52.332;5.614;2022-10-16T14:23:42;4.10;;;1.17;;
48635;SDS011;34429;52.332;5.614;2022-10-16T14:28:47;6.95;;;1.30;;
48635;SDS011;34429;52.332;5.614;2022-10-16T14:31:26;10.57;;;1.33;;
48635;SDS011;34429;52.332;5.614;2022-10-16T14:33:56;6.22;;;1.38;;
48635;SDS011;34429;52.332;5.614;2022-10-16T14:36:25;6.03;;;1.23;;
48635;SDS011;34429;52.332;5.614;2022-10-16T14:38:59;8.25;;;2.25;;
48635;SDS011;34429;52.332;5.614;2022-10-16T14:41:42;9.77;;;1.80;;
48635;SDS011;34429;52.332;5.614;2022-10-16T14:44:13;3.42;;;1.20;;
48635;SDS011;34429;52.332;5.614;2022-10-16T14:46:43;8.63;;;1.67;;
48635;SDS011;34429;52.332;5.614;2022-10-16T14:49:16;6.63;;;1.50;;
48635;SDS011;34429;52.332;5.614;2022-10-16T14:51:47;6.28;;;1.60;;
48635;SDS011;34429;52.332;5.614;2022-10-16T14:54:17;6.00;;;1.38;;
48635;SDS011;34429;52.332;5.614;2022-10-16T14:56:50;8.52;;;1.65;;
48635;SDS011;34429;52.332;5.614;2022-10-16T14:59:32;5.50;;;1.73;;
48635;SDS011;34429;52.332;5.614;2022-10-16T15:02:09;9.00;;;1.35;;
48635;SDS011;34429;52.332;5.614;2022-10-16T15:04:46;8.32;;;1.60;;
48635;SDS011;34429;52.332;5.614;2022-10-16T15:07:14;7.70;;;1.63;;
48635;SDS011;34429;52.332;5.614;2022-10-16T15:09:43;3.97;;;1.50;;
48635;SDS011;34429;52.332;5.614;2022-10-16T15:12:14;5.53;;;1.30;;
48635;SDS011;34429;52.332;5.614;2022-10-16T15:14:42;4.97;;;1.50;;
48635;SDS011;34429;52.332;5.614;2022-10-16T15:17:11;6.10;;;1.17;;
48635;SDS011;34429;52.332;5.614;2022-10-16T15:19:39;6.72;;;1.50;;
48635;SDS011;34429;52.332;5.614;2022-10-16T15:22:08;6.57;;;1.70;;
48635;SDS011;34429;52.332;5.614;2022-10-16T15:24:38;5.25;;;1.63;;
48635;SDS011;34429;52.332;5.614;2022-10-16T15:27:06;6.30;;;2.07;;
48635;SDS011;34429;52.332;5.614;2022-10-16T15:29:37;6.53;;;1.43;;
48635;SDS011;34429;52.332;5.614;2022-10-16T15:32:06;4.88;;;1.35;;
48635;SDS011;34429;52.332;5.614;2022-10-16T15:34:34;9.00;;;1.90;;
48635;SDS011;34429;52.332;5.614;2022-10-16T15:37:02;6.00;;;1.63;;
48635;SDS011;34429;52.332;5.614;2022-10-16T15:39:31;5.43;;;1.75;;
48635;SDS011;34429;52.332;5.614;2022-10-16T15:41:59;9.60;;;2.20;;